createdAt,value
2019-02-28T00:02:10.567Z,4.27
2019-02-28T00:06:18.834Z,4.33
2019-02-28T00:10:28.148Z,5.03
2019-02-28T00:14:36.064Z,4.73
2019-02-28T00:18:44.213Z,5.23
2019-02-28T00:22:52.520Z,5.00
2019-02-28T00:27:00.140Z,4.70
2019-02-28T00:31:08.492Z,5.67
2019-02-28T00:35:16.644Z,4.90
2019-02-28T00:39:24.318Z,4.03
2019-02-28T00:43:32.495Z,3.93
2019-02-28T00:47:40.793Z,3.90
2019-02-28T00:51:48.513Z,4.53
2019-02-28T00:55:56.370Z,3.97
2019-02-28T01:00:05.484Z,4.17
2019-02-28T01:04:13.539Z,3.90
2019-02-28T01:08:22.165Z,4.67
2019-02-28T01:12:30.386Z,4.57
2019-02-28T01:16:38.741Z,4.50
2019-02-28T01:20:50.051Z,3.87
2019-02-28T01:24:56.909Z,4.30
2019-02-28T01:29:05.282Z,3.37
2019-02-28T01:33:13.558Z,3.80
2019-02-28T01:37:21.997Z,4.03
2019-02-28T01:41:31.225Z,3.60
2019-02-28T01:45:43.457Z,3.67
2019-02-28T01:49:48.998Z,3.50
2019-02-28T01:53:56.923Z,3.63
2019-02-28T01:58:05.251Z,3.53
2019-02-28T02:02:13.002Z,3.73
2019-02-28T02:06:22.609Z,3.27
2019-02-28T02:10:31.144Z,3.90
2019-02-28T02:14:38.883Z,3.60
2019-02-28T02:18:46.959Z,4.97
2019-02-28T02:22:54.710Z,5.53
2019-02-28T02:27:02.577Z,4.60
2019-02-28T02:31:10.552Z,4.70
2019-02-28T02:35:18.295Z,4.40
2019-02-28T02:39:26.434Z,4.43
2019-02-28T02:43:34.613Z,4.40
2019-02-28T02:47:42.754Z,5.00
2019-02-28T02:51:50.883Z,5.20
2019-02-28T02:56:03.589Z,8.07
2019-02-28T03:00:13.732Z,5.90
2019-02-28T03:04:23.306Z,4.77
2019-02-28T03:08:35.691Z,4.47
2019-02-28T03:12:41.195Z,5.37
2019-02-28T03:16:48.910Z,5.30
2019-02-28T03:20:56.703Z,4.90
2019-02-28T03:25:04.753Z,4.70
2019-02-28T03:29:13.050Z,4.13
2019-02-28T03:33:27.299Z,4.50
2019-02-28T03:37:33.051Z,4.63
2019-02-28T03:41:40.580Z,7.80
2019-02-28T03:45:49.660Z,10.17
2019-02-28T03:49:57.536Z,8.67
2019-02-28T03:54:05.743Z,6.00
2019-02-28T03:58:13.653Z,6.50
2019-02-28T04:02:22.545Z,8.17
2019-02-28T04:06:31.437Z,8.60
2019-02-28T04:10:39.251Z,7.63
2019-02-28T04:14:47.486Z,8.70
2019-02-28T04:18:55.570Z,7.57
2019-02-28T04:23:04.459Z,7.53
2019-02-28T04:27:13.229Z,6.60
2019-02-28T04:31:21.155Z,7.03
2019-02-28T04:35:28.856Z,11.00
2019-02-28T04:39:36.686Z,6.53
2019-02-28T04:43:45.063Z,6.93
2019-02-28T04:47:52.901Z,8.43
2019-02-28T04:52:01.023Z,8.40
2019-02-28T04:56:11.591Z,7.40
2019-02-28T05:00:18.378Z,8.00
2019-02-28T05:04:26.290Z,8.90
2019-02-28T05:08:38.593Z,36.90
2019-02-28T05:12:43.670Z,20.63
2019-02-28T05:16:51.975Z,15.40
2019-02-28T05:20:59.783Z,14.67
2019-02-28T05:25:07.902Z,15.97
2019-02-28T05:29:15.707Z,16.07
2019-02-28T05:33:23.336Z,25.27
2019-02-28T05:37:31.115Z,11.83
2019-02-28T05:41:38.846Z,10.00
2019-02-28T05:45:49.580Z,13.10
2019-02-28T05:49:56.434Z,7.17
2019-02-28T05:54:04.310Z,6.80
2019-02-28T05:58:12.105Z,6.60
2019-02-28T06:02:22.585Z,6.00
2019-02-28T06:06:29.707Z,11.13
2019-02-28T06:10:37.511Z,16.27
2019-02-28T06:14:45.821Z,13.97
2019-02-28T06:18:53.739Z,14.03
2019-02-28T06:23:01.868Z,21.20
2019-02-28T06:27:10.394Z,14.20
2019-02-28T06:31:17.994Z,14.53
2019-02-28T06:35:26.209Z,13.83
2019-02-28T06:39:34.115Z,11.47
2019-02-28T06:43:41.945Z,9.10
2019-02-28T06:47:50.168Z,9.90
2019-02-28T06:51:58.999Z,9.47
2019-02-28T06:56:06.681Z,6.97
2019-02-28T07:00:14.594Z,10.60
2019-02-28T07:04:22.517Z,7.67
2019-02-28T07:08:30.066Z,28.43
2019-02-28T07:12:38.340Z,11.10
2019-02-28T07:16:46.052Z,19.37
2019-02-28T07:20:53.840Z,15.27
2019-02-28T07:25:01.779Z,7.10
2019-02-28T07:29:11.981Z,7.53
2019-02-28T07:33:20.780Z,7.77
2019-02-28T07:37:28.902Z,7.17
2019-02-28T07:41:36.603Z,7.40
2019-02-28T07:45:44.815Z,7.33
2019-02-28T07:49:53.033Z,8.57
2019-02-28T07:54:01.671Z,7.70
2019-02-28T07:58:09.829Z,8.37
2019-02-28T08:02:17.977Z,9.23
2019-02-28T08:06:25.702Z,8.43
2019-02-28T08:10:33.598Z,8.03
2019-02-28T08:14:43.720Z,8.30
2019-02-28T08:18:52.461Z,7.87
2019-02-28T08:23:00.618Z,8.03
2019-02-28T08:27:09.080Z,8.77
2019-02-28T08:31:16.771Z,8.40
2019-02-28T08:35:24.569Z,7.93
2019-02-28T08:39:32.290Z,8.67
2019-02-28T08:43:40.083Z,8.00
2019-02-28T08:47:48.307Z,7.80
2019-02-28T08:51:56.027Z,9.27
2019-02-28T08:56:03.933Z,7.70
2019-02-28T09:00:14.914Z,8.13
2019-02-28T09:04:22.721Z,8.97
2019-02-28T09:08:30.632Z,7.70
2019-02-28T09:12:39.072Z,7.73
2019-02-28T09:16:46.780Z,7.80
2019-02-28T09:20:54.995Z,7.10
2019-02-28T09:25:03.205Z,7.47
2019-02-28T09:29:11.014Z,6.97
2019-02-28T09:33:19.376Z,5.87
2019-02-28T09:37:29.836Z,5.90
2019-02-28T09:41:40.183Z,5.83
2019-02-28T09:45:49.011Z,4.93
2019-02-28T09:49:56.732Z,5.27
2019-02-28T09:54:04.552Z,5.50
2019-02-28T09:58:12.855Z,4.80
2019-02-28T10:02:20.661Z,5.03
2019-02-28T10:06:28.367Z,5.37
2019-02-28T10:10:36.641Z,4.40
2019-02-28T10:14:44.308Z,5.20
2019-02-28T10:18:52.353Z,4.77
2019-02-28T10:23:00.543Z,5.20
2019-02-28T10:27:08.350Z,4.93
2019-02-28T10:31:16.671Z,5.30
2019-02-28T10:35:24.892Z,5.33
2019-02-28T10:39:32.614Z,4.90
2019-02-28T10:43:40.878Z,4.60
2019-02-28T10:47:49.123Z,4.80
2019-02-28T10:51:56.959Z,4.47
2019-02-28T10:56:04.884Z,4.20
2019-02-28T11:00:20.183Z,3.97
2019-02-28T11:04:27.970Z,4.00
2019-02-28T11:08:36.387Z,3.97
2019-02-28T11:12:44.698Z,3.90
2019-02-28T11:16:52.314Z,3.70
2019-02-28T11:21:00.322Z,3.50
2019-02-28T11:25:09.563Z,3.23
2019-02-28T11:29:17.177Z,4.07
2019-02-28T11:33:25.689Z,3.30
2019-02-28T11:37:33.425Z,3.50
2019-02-28T11:41:41.535Z,3.17
2019-02-28T11:45:50.806Z,2.87
2019-02-28T11:50:00.342Z,2.87
2019-02-28T11:54:08.346Z,3.47
2019-02-28T11:58:17.724Z,3.37
2019-02-28T12:02:25.459Z,2.50
2019-02-28T12:06:33.700Z,2.87
2019-02-28T12:10:41.612Z,2.93
2019-02-28T12:14:50.070Z,6.60
2019-02-28T12:18:58.252Z,6.40
2019-02-28T12:23:05.987Z,7.63
2019-02-28T12:27:14.290Z,3.53
2019-02-28T12:31:22.309Z,4.83
2019-02-28T12:35:29.866Z,4.60
2019-02-28T12:39:37.731Z,3.03
2019-02-28T12:43:46.039Z,3.23
2019-02-28T12:47:53.838Z,3.40
2019-02-28T12:52:03.103Z,3.13
2019-02-28T12:56:11.259Z,3.60
2019-02-28T13:00:32.549Z,3.93
2019-02-28T13:04:40.451Z,3.10
2019-02-28T13:08:48.265Z,3.60
2019-02-28T13:13:05.733Z,2.93
2019-02-28T13:17:06.145Z,3.67
2019-02-28T13:21:14.090Z,4.63
2019-02-28T13:25:23.625Z,2.90
2019-02-28T13:29:32.567Z,3.53
2019-02-28T13:33:40.950Z,4.13
2019-02-28T13:37:49.096Z,4.97
2019-02-28T13:41:58.689Z,4.30
2019-02-28T13:46:06.847Z,5.40
2019-02-28T13:50:22.078Z,4.07
2019-02-28T13:54:29.222Z,3.87
2019-02-28T13:58:37.053Z,3.37
2019-02-28T14:02:44.955Z,3.50
2019-02-28T14:06:55.861Z,5.57
2019-02-28T14:11:02.222Z,4.20
2019-02-28T14:15:15.506Z,7.47
2019-02-28T14:19:21.835Z,5.27
2019-02-28T14:23:29.504Z,5.70
2019-02-28T14:27:37.486Z,3.20
2019-02-28T14:31:45.252Z,3.57
2019-02-28T14:35:53.780Z,4.30
2019-02-28T14:40:02.064Z,4.20
2019-02-28T14:44:09.854Z,3.60
2019-02-28T14:48:18.037Z,5.03
2019-02-28T14:52:25.949Z,5.10
2019-02-28T14:56:33.875Z,7.10
2019-02-28T15:00:43.345Z,4.20
2019-02-28T15:04:52.233Z,4.50
2019-02-28T15:09:00.057Z,4.53
2019-02-28T15:13:08.481Z,4.27
2019-02-28T15:17:16.590Z,6.33
2019-02-28T15:21:24.204Z,5.27
2019-02-28T15:25:32.330Z,6.10
2019-02-28T15:29:40.265Z,5.73
2019-02-28T15:33:48.138Z,5.20
2019-02-28T15:37:57.205Z,6.70
2019-02-28T15:42:08.250Z,7.87
2019-02-28T15:46:15.171Z,6.43
2019-02-28T15:50:25.290Z,6.27
2019-02-28T15:54:33.225Z,6.80
2019-02-28T15:58:42.310Z,7.20
2019-02-28T16:02:50.804Z,7.47
2019-02-28T16:06:58.513Z,8.10
2019-02-28T16:11:07.222Z,5.73
2019-02-28T16:15:15.973Z,6.67
2019-02-28T16:19:23.734Z,5.87
2019-02-28T16:23:32.300Z,5.97
2019-02-28T16:27:40.497Z,7.60
2019-02-28T16:31:48.245Z,6.43
2019-02-28T16:35:56.065Z,7.37
2019-02-28T16:40:07.247Z,6.13
2019-02-28T16:44:15.273Z,6.97
2019-02-28T16:48:23.171Z,6.40
2019-02-28T16:52:30.863Z,8.20
2019-02-28T16:56:38.996Z,8.70
2019-02-28T17:00:47.030Z,6.17
2019-02-28T17:04:55.837Z,6.60
2019-02-28T17:09:14.762Z,10.43
2019-02-28T17:13:32.229Z,6.37
2019-02-28T17:17:53.080Z,6.03
2019-02-28T17:22:01.108Z,8.03
2019-02-28T17:26:10.758Z,13.80
2019-02-28T17:30:23.926Z,9.57
2019-02-28T17:34:32.332Z,8.03
2019-02-28T17:38:40.632Z,7.90
2019-02-28T17:42:49.663Z,8.77
2019-02-28T17:47:00.591Z,7.87
2019-02-28T17:51:35.972Z,8.10
2019-02-28T17:56:04.830Z,7.17
2019-02-28T18:00:53.330Z,6.73
2019-02-28T18:05:33.761Z,6.97
2019-02-28T18:10:30.616Z,18.87
2019-02-28T18:15:09.706Z,27.20
2019-02-28T18:20:05.972Z,23.60
2019-02-28T18:24:44.129Z,28.27
2019-02-28T18:29:23.733Z,19.17
2019-02-28T18:33:32.094Z,11.10
2019-02-28T18:37:40.216Z,6.13
2019-02-28T18:41:47.980Z,5.47
2019-02-28T18:45:56.883Z,5.27
2019-02-28T18:50:06.229Z,6.43
2019-02-28T18:54:13.893Z,5.87
2019-02-28T18:58:21.911Z,6.40
2019-02-28T19:02:29.542Z,10.73
2019-02-28T19:06:37.395Z,8.00
2019-02-28T19:10:45.737Z,15.90
2019-02-28T19:14:53.487Z,13.73
2019-02-28T19:19:02.191Z,9.80
2019-02-28T19:23:10.853Z,5.90
2019-02-28T19:27:18.524Z,7.00
2019-02-28T19:31:26.833Z,21.30
2019-02-28T19:35:35.072Z,6.47
2019-02-28T19:39:43.784Z,5.63
2019-02-28T19:43:51.684Z,10.20
2019-02-28T19:47:59.524Z,5.40
2019-02-28T19:52:07.651Z,12.37
2019-02-28T19:56:15.950Z,7.03
2019-02-28T20:00:23.776Z,6.43
2019-02-28T20:04:31.508Z,5.90
2019-02-28T20:08:40.096Z,5.80
2019-02-28T20:12:47.921Z,5.63
2019-02-28T20:16:55.988Z,5.00
2019-02-28T20:21:04.396Z,4.97
2019-02-28T20:25:12.907Z,5.73
2019-02-28T20:29:21.461Z,5.97
2019-02-28T20:33:29.814Z,5.10
2019-02-28T20:37:37.934Z,5.10
2019-02-28T20:41:45.793Z,4.97
2019-02-28T20:45:54.008Z,4.83
2019-02-28T20:50:01.837Z,4.67
2019-02-28T20:54:09.998Z,4.90
2019-02-28T20:58:17.753Z,5.13
2019-02-28T21:02:26.385Z,5.20
2019-02-28T21:06:34.604Z,5.60
2019-02-28T21:10:42.332Z,5.30
2019-02-28T21:14:50.130Z,4.80
2019-02-28T21:18:59.477Z,5.07
2019-02-28T21:23:07.188Z,5.67
2019-02-28T21:27:15.172Z,4.90
2019-02-28T21:31:23.299Z,5.33
2019-02-28T21:35:32.032Z,4.83
2019-02-28T21:39:39.868Z,5.67
2019-02-28T21:43:47.973Z,5.20
2019-02-28T21:47:55.864Z,5.37
2019-02-28T21:52:04.117Z,4.93
2019-02-28T21:56:11.901Z,5.40
2019-02-28T22:00:21.991Z,5.13
2019-02-28T22:04:30.003Z,5.47
2019-02-28T22:08:37.605Z,5.47
2019-02-28T22:12:45.511Z,5.13
2019-02-28T22:16:54.852Z,4.87
2019-02-28T22:21:02.881Z,5.40
2019-02-28T22:25:13.100Z,5.10
2019-02-28T22:29:21.399Z,4.90
2019-02-28T22:34:00.478Z,5.73
2019-02-28T22:38:09.556Z,5.23
2019-02-28T22:42:21.999Z,5.30
2019-02-28T22:46:27.430Z,5.77
2019-02-28T22:50:36.702Z,5.07
2019-02-28T22:54:44.648Z,5.40
2019-02-28T22:58:52.404Z,5.80
2019-02-28T23:03:00.958Z,5.67
2019-02-28T23:07:10.247Z,5.37
2019-02-28T23:11:17.863Z,5.60
2019-02-28T23:15:26.158Z,5.67
2019-02-28T23:19:34.328Z,5.60
2019-02-28T23:23:42.049Z,5.57
2019-02-28T23:27:50.030Z,5.70
2019-02-28T23:32:36.251Z,6.07
2019-02-28T23:36:44.259Z,5.83
2019-02-28T23:40:52.106Z,5.50
2019-02-28T23:44:59.771Z,5.63
2019-02-28T23:49:07.986Z,5.80
2019-02-28T23:53:16.292Z,5.70
2019-02-28T23:57:24.702Z,5.70
